createdAt,value
2023-05-12T00:01:03.029Z,102152.27
2023-05-12T00:04:41.752Z,102157.45
2023-05-12T00:08:18.733Z,102157.76
2023-05-12T00:11:56.504Z,102154.91
2023-05-12T00:15:33.877Z,102153.09
2023-05-12T00:19:12.415Z,102160.44
2023-05-12T00:22:49.504Z,102159.45
2023-05-12T00:26:27.070Z,102159.70
2023-05-12T00:30:05.132Z,102159.52
2023-05-12T00:33:42.872Z,102156.45
2023-05-12T00:37:19.874Z,102162.88
2023-05-12T00:40:57.515Z,102163.79
2023-05-12T00:44:35.454Z,102165.71
2023-05-12T00:48:14.033Z,102165.13
2023-05-12T00:51:50.677Z,102171.89
2023-05-12T00:55:30.520Z,102175.22
2023-05-12T00:59:06.711Z,102177.34
2023-05-12T01:02:43.862Z,102178.77
2023-05-12T01:06:43.142Z,102187.42
2023-05-12T01:09:59.499Z,102187.02
2023-05-12T01:13:37.507Z,102191.90
2023-05-12T01:17:19.735Z,102195.23
2023-05-12T01:20:53.810Z,102195.36
2023-05-12T01:24:34.489Z,102200.39
2023-05-12T01:28:08.628Z,102194.77
2023-05-12T01:31:48.964Z,102201.80
2023-05-12T01:35:22.685Z,102200.02
2023-05-12T01:39:00.696Z,102203.34
2023-05-12T01:42:40.844Z,102200.61
2023-05-12T01:46:17.908Z,102205.61
2023-05-12T01:49:54.542Z,102204.80
2023-05-12T01:53:31.313Z,102207.52
2023-05-12T01:57:08.683Z,102209.02
2023-05-12T02:00:46.394Z,102209.27
2023-05-12T02:04:23.752Z,102208.52
2023-05-12T02:08:02.098Z,102213.73
2023-05-12T02:11:39.269Z,102208.60
2023-05-12T02:15:17.469Z,102210.89
2023-05-12T02:18:54.443Z,102214.09
2023-05-12T02:22:32.729Z,102214.46
2023-05-12T02:26:10.020Z,102215.30
2023-05-12T02:29:47.801Z,102214.49
2023-05-12T02:33:25.330Z,102215.19
2023-05-12T02:37:03.140Z,102220.36
2023-05-12T02:40:40.540Z,102222.23
2023-05-12T02:44:18.808Z,102225.95
2023-05-12T02:47:56.002Z,102223.53
2023-05-12T02:51:33.682Z,102223.91
2023-05-12T02:55:11.324Z,102227.50
2023-05-12T02:58:49.086Z,102228.37
2023-05-12T03:02:27.290Z,102227.77
2023-05-12T03:06:05.260Z,102228.06
2023-05-12T03:09:42.005Z,102228.61
2023-05-12T03:13:19.800Z,102230.81
2023-05-12T03:16:57.289Z,102231.03
2023-05-12T03:20:35.175Z,102231.09
2023-05-12T03:24:12.552Z,102231.29
2023-05-12T03:27:50.401Z,102231.84
2023-05-12T03:31:28.103Z,102234.90
2023-05-12T03:35:08.092Z,102231.87
2023-05-12T03:38:43.238Z,102237.09
2023-05-12T03:42:21.518Z,102237.30
2023-05-12T03:45:59.329Z,102238.41
2023-05-12T03:49:36.633Z,102239.41
2023-05-12T03:53:14.179Z,102243.01
2023-05-12T03:56:53.756Z,102242.58
2023-05-12T04:00:29.650Z,102240.94
2023-05-12T04:04:07.520Z,102243.83
2023-05-12T04:07:44.881Z,102244.96
2023-05-12T04:11:23.677Z,102248.84
2023-05-12T04:15:00.324Z,102248.52
2023-05-12T04:18:38.405Z,102246.73
2023-05-12T04:22:15.700Z,102247.67
2023-05-12T04:25:53.474Z,102245.47
2023-05-12T04:29:31.008Z,102250.79
2023-05-12T04:33:11.670Z,102250.59
2023-05-12T04:36:46.545Z,102253.20
2023-05-12T04:40:24.389Z,102257.02
2023-05-12T04:44:01.908Z,102262.80
2023-05-12T04:47:39.318Z,102266.55
2023-05-12T04:51:17.163Z,102274.30
2023-05-12T04:54:54.505Z,102279.74
2023-05-12T04:58:32.753Z,102283.83
2023-05-12T05:02:10.514Z,102282.77
2023-05-12T05:05:49.412Z,102282.00
2023-05-12T05:09:25.483Z,102288.19
2023-05-12T05:13:02.977Z,102290.59
2023-05-12T05:16:40.761Z,102283.81
2023-05-12T05:20:19.695Z,102287.55
2023-05-12T05:23:56.362Z,102289.05
2023-05-12T05:27:34.418Z,102288.34
2023-05-12T05:31:18.000Z,102290.31
2023-05-12T05:34:49.105Z,102294.06
2023-05-12T05:38:27.270Z,102299.95
2023-05-12T05:42:05.284Z,102305.65
2023-05-12T05:45:42.438Z,102307.95
2023-05-12T05:49:20.474Z,102311.35
2023-05-12T05:52:57.767Z,102315.02
2023-05-12T05:56:36.422Z,102319.19
2023-05-12T06:00:15.464Z,102322.39
2023-05-12T06:03:50.617Z,102327.19
2023-05-12T06:07:28.339Z,102333.33
2023-05-12T06:11:05.977Z,102331.83
2023-05-12T06:14:43.378Z,102332.30
2023-05-12T06:18:23.485Z,102341.10
2023-05-12T06:21:58.926Z,102343.50
2023-05-12T06:25:36.906Z,102342.31
2023-05-12T06:29:15.402Z,102346.04
2023-05-12T06:32:52.220Z,102350.81
2023-05-12T06:40:08.088Z,102353.09
2023-05-12T06:43:46.367Z,102354.66
2023-05-12T06:47:23.031Z,102358.74
2023-05-12T06:51:00.384Z,102357.71
2023-05-12T06:54:38.530Z,102357.37
2023-05-12T06:58:15.923Z,102362.33
2023-05-12T07:01:53.416Z,102361.98
2023-05-12T07:05:31.255Z,102360.73
2023-05-12T07:09:08.774Z,102361.09
2023-05-12T07:13:05.706Z,102364.95
2023-05-12T07:16:24.386Z,102369.16
2023-05-12T07:20:01.929Z,102371.05
2023-05-12T07:23:39.761Z,102370.11
2023-05-12T07:27:17.907Z,102371.51
2023-05-12T07:30:54.802Z,102375.88
2023-05-12T07:34:34.062Z,102377.05
2023-05-12T07:41:47.964Z,102383.31
2023-05-12T07:49:03.375Z,102387.73
2023-05-12T07:52:48.142Z,102393.04
2023-05-12T07:59:56.063Z,102391.29
2023-05-12T08:03:35.750Z,102390.05
2023-05-12T08:07:11.681Z,102394.30
2023-05-12T08:10:49.330Z,102397.67
2023-05-12T08:14:27.177Z,102399.04
2023-05-12T08:18:04.746Z,102399.77
2023-05-12T08:21:42.646Z,102400.33
2023-05-12T08:25:20.509Z,102403.88
2023-05-12T08:28:57.446Z,102406.54
2023-05-12T08:32:36.259Z,102408.54
2023-05-12T08:36:13.400Z,102409.09
2023-05-12T08:43:38.538Z,102409.20
2023-05-12T08:47:07.139Z,102408.84
2023-05-12T08:50:45.856Z,102413.07
2023-05-12T08:54:22.889Z,102415.02
2023-05-12T08:58:02.589Z,102412.84
2023-05-12T09:01:56.446Z,102413.95
2023-05-12T09:05:14.406Z,102413.70
2023-05-12T09:08:52.759Z,102414.35
2023-05-12T09:12:34.855Z,102413.77
2023-05-12T09:16:12.246Z,102408.41
2023-05-12T09:19:45.477Z,102402.34
2023-05-12T09:23:23.318Z,102401.30
2023-05-12T09:27:00.616Z,102400.20
2023-05-12T09:30:38.961Z,102396.34
2023-05-12T09:34:15.839Z,102392.52
2023-05-12T09:37:53.849Z,102387.09
2023-05-12T09:41:37.179Z,102386.23
2023-05-12T09:45:10.079Z,102386.88
2023-05-12T09:48:48.425Z,102384.20
2023-05-12T09:52:24.501Z,102383.58
2023-05-12T09:56:01.906Z,102381.67
2023-05-12T09:59:41.643Z,102383.42
2023-05-12T10:03:18.644Z,102383.06
2023-05-12T10:06:56.484Z,102379.52
2023-05-12T10:10:53.619Z,102377.67
2023-05-12T10:14:11.374Z,102377.55
2023-05-12T10:17:51.551Z,102375.08
2023-05-12T10:21:26.351Z,102371.80
2023-05-12T10:25:03.713Z,102369.63
2023-05-12T10:28:43.031Z,102367.33
2023-05-12T10:32:19.156Z,102365.09
2023-05-12T10:35:56.593Z,102364.02
2023-05-12T10:39:34.805Z,102366.93
2023-05-12T10:43:23.959Z,102367.21
2023-05-12T10:47:03.377Z,102363.14
2023-05-12T10:50:28.425Z,102363.69
2023-05-12T10:54:11.000Z,102362.09
2023-05-12T10:57:54.657Z,102361.77
2023-05-12T11:01:26.218Z,102358.02
2023-05-12T11:04:59.952Z,102358.39
2023-05-12T11:08:37.908Z,102358.08
2023-05-12T11:12:14.411Z,102358.09
2023-05-12T11:15:51.781Z,102352.98
2023-05-12T11:19:28.782Z,102354.65
2023-05-12T11:23:06.956Z,102356.87
2023-05-12T11:26:44.157Z,102350.90
2023-05-12T11:30:22.267Z,102350.30
2023-05-12T11:34:11.971Z,102352.27
2023-05-12T11:37:39.562Z,102351.05
2023-05-12T11:41:14.478Z,102353.21
2023-05-12T11:44:53.119Z,102353.27
2023-05-12T11:52:07.870Z,102350.57
2023-05-12T11:55:54.047Z,102352.68
2023-05-12T12:03:16.064Z,102350.60
2023-05-12T12:06:45.136Z,102346.76
2023-05-12T12:10:20.582Z,102347.23
2023-05-12T12:13:58.462Z,102347.14
2023-05-12T12:17:36.116Z,102348.55
2023-05-12T12:21:13.816Z,102347.11
2023-05-12T12:24:51.349Z,102341.92
2023-05-12T12:28:29.049Z,102341.54
2023-05-12T12:32:06.759Z,102343.46
2023-05-12T12:35:44.558Z,102339.13
2023-05-12T12:39:23.307Z,102334.96
2023-05-12T12:42:59.464Z,102336.15
2023-05-12T12:46:37.849Z,102331.82
2023-05-12T12:50:15.946Z,102329.95
2023-05-12T12:53:52.578Z,102330.75
2023-05-12T12:57:30.628Z,102332.62
2023-05-12T13:01:07.876Z,102331.79
2023-05-12T13:04:45.688Z,102331.09
2023-05-12T13:08:42.516Z,102323.08
2023-05-12T13:12:01.535Z,102320.98
2023-05-12T13:19:16.309Z,102320.84
2023-05-12T13:26:31.667Z,102312.86
2023-05-12T13:30:28.328Z,102304.22
2023-05-12T13:33:47.307Z,102303.16
2023-05-12T13:37:24.892Z,102302.48
2023-05-12T13:41:02.732Z,102299.93
2023-05-12T13:44:40.489Z,102294.04
2023-05-12T13:48:17.784Z,102293.83
2023-05-12T13:51:55.533Z,102292.47
2023-05-12T13:55:34.609Z,102287.97
2023-05-12T13:59:11.216Z,102285.52
2023-05-12T14:02:49.255Z,102286.52
2023-05-12T14:06:27.882Z,102282.09
2023-05-12T14:10:04.387Z,102283.37
2023-05-12T14:13:44.073Z,102281.02
2023-05-12T14:17:19.626Z,102279.14
2023-05-12T14:20:57.492Z,102279.42
2023-05-12T14:24:35.070Z,102280.23
2023-05-12T14:28:12.187Z,102280.30
2023-05-12T14:31:50.136Z,102274.42
2023-05-12T14:35:28.064Z,102275.20
2023-05-12T14:39:05.868Z,102273.28
2023-05-12T14:42:43.596Z,102269.39
2023-05-12T14:46:39.566Z,102268.67
2023-05-12T14:49:58.493Z,102271.69
2023-05-12T14:53:35.860Z,102272.05
2023-05-12T14:57:14.078Z,102269.91
2023-05-12T15:00:52.032Z,102263.20
2023-05-12T15:04:29.030Z,102264.08
2023-05-12T15:08:06.605Z,102268.32
2023-05-12T15:11:48.237Z,102266.03
2023-05-12T15:15:22.443Z,102266.20
2023-05-12T15:22:39.433Z,102269.36
2023-05-12T15:26:31.419Z,102267.73
2023-05-12T15:29:56.102Z,102270.40
2023-05-12T15:33:32.274Z,102267.92
2023-05-12T15:37:08.018Z,102260.35
2023-05-12T15:40:46.001Z,102257.53
2023-05-12T15:44:23.351Z,102253.47
2023-05-12T15:48:01.328Z,102253.29
2023-05-12T15:51:39.095Z,102254.34
2023-05-12T15:55:38.330Z,102252.69
2023-05-12T15:58:54.414Z,102249.83
2023-05-12T16:02:32.277Z,102244.84
2023-05-12T16:06:09.663Z,102243.40
2023-05-12T16:09:47.996Z,102240.61
2023-05-12T16:13:25.128Z,102239.20
2023-05-12T16:17:02.924Z,102238.83
2023-05-12T16:24:17.834Z,102243.27
2023-05-12T16:27:55.934Z,102239.00
2023-05-12T16:31:33.141Z,102238.46
2023-05-12T16:35:11.245Z,102240.38
2023-05-12T16:38:48.787Z,102234.52
2023-05-12T16:42:26.323Z,102230.65
2023-05-12T16:46:04.544Z,102231.49
2023-05-12T16:49:41.585Z,102227.48
2023-05-12T16:53:19.318Z,102222.38
2023-05-12T16:56:59.133Z,102218.61
2023-05-12T17:00:34.773Z,102215.36
2023-05-12T17:04:12.585Z,102213.64
2023-05-12T17:07:50.090Z,102210.11
2023-05-12T17:11:27.668Z,102210.33
2023-05-12T17:15:08.621Z,102216.78
2023-05-12T17:22:21.841Z,102217.44
2023-05-12T17:25:58.736Z,102215.40
2023-05-12T17:29:36.171Z,102216.58
2023-05-12T17:33:15.746Z,102218.41
2023-05-12T17:36:51.303Z,102218.46
2023-05-12T17:40:29.685Z,102220.63
2023-05-12T17:44:06.732Z,102229.09
2023-05-12T17:47:45.816Z,102228.17
2023-05-12T17:51:21.990Z,102223.64
2023-05-12T17:54:59.638Z,102226.52
2023-05-12T17:58:37.525Z,102220.61
2023-05-12T18:02:15.241Z,102227.59
2023-05-12T18:09:30.515Z,102233.60
2023-05-12T18:13:08.280Z,102238.23
2023-05-12T18:16:45.738Z,102238.84
2023-05-12T18:20:24.181Z,102242.04
2023-05-12T18:24:01.580Z,102250.14
2023-05-12T18:27:39.061Z,102249.30
2023-05-12T18:31:19.709Z,102252.88
2023-05-12T18:34:54.246Z,102252.48
2023-05-12T18:38:32.344Z,102255.39
2023-05-12T18:42:11.276Z,102259.26
2023-05-12T18:45:47.640Z,102261.40
2023-05-12T18:49:25.546Z,102261.96
2023-05-12T18:53:03.791Z,102265.71
2023-05-12T18:56:40.622Z,102263.51
2023-05-12T19:00:18.651Z,102267.65
2023-05-12T19:03:55.650Z,102272.17
2023-05-12T19:07:33.815Z,102274.54
2023-05-12T19:11:11.024Z,102279.08
2023-05-12T19:14:48.872Z,102282.38
2023-05-12T19:18:27.120Z,102281.27
2023-05-12T19:22:05.846Z,102280.49
2023-05-12T19:25:43.543Z,102279.55
2023-05-12T19:29:19.128Z,102287.08
2023-05-12T19:32:57.349Z,102291.80
2023-05-12T19:36:36.351Z,102292.80
2023-05-12T19:40:12.798Z,102296.30
2023-05-12T19:43:50.402Z,102293.80
2023-05-12T19:51:05.521Z,102301.81
2023-05-12T19:54:43.236Z,102301.10
2023-05-12T19:58:21.028Z,102304.27
2023-05-12T20:01:58.511Z,102302.92
2023-05-12T20:05:39.368Z,102305.63
2023-05-12T20:09:14.058Z,102305.77
2023-05-12T20:12:52.056Z,102305.27
2023-05-12T20:16:30.135Z,102304.56
2023-05-12T20:20:11.645Z,102304.70
2023-05-12T20:23:44.632Z,102304.66
2023-05-12T20:27:22.549Z,102306.70
2023-05-12T20:30:59.903Z,102304.95
2023-05-12T20:34:37.853Z,102310.05
2023-05-12T20:38:15.475Z,102311.15
2023-05-12T20:41:53.051Z,102304.77
2023-05-12T20:45:30.614Z,102311.05
2023-05-12T20:49:08.688Z,102310.81
2023-05-12T20:52:47.524Z,102313.90
2023-05-12T20:56:23.771Z,102312.73
2023-05-12T21:00:01.075Z,102318.30
2023-05-12T21:03:39.483Z,102324.30
2023-05-12T21:07:17.439Z,102334.28
2023-05-12T21:10:55.145Z,102341.17
2023-05-12T21:14:38.768Z,102346.45
2023-05-12T21:18:11.630Z,102348.77
2023-05-12T21:21:47.421Z,102344.05
2023-05-12T21:25:25.875Z,102346.83
2023-05-12T21:29:03.776Z,102346.92
2023-05-12T21:32:42.462Z,102343.52
2023-05-12T21:36:18.031Z,102345.19
2023-05-12T21:39:55.837Z,102347.41
2023-05-12T21:43:33.337Z,102346.60
2023-05-12T21:47:12.830Z,102345.11
2023-05-12T21:50:58.344Z,102346.71
2023-05-12T21:54:26.298Z,102347.04
2023-05-12T21:58:03.737Z,102359.48
2023-05-12T22:01:41.912Z,102366.84
2023-05-12T22:05:19.082Z,102373.53
2023-05-12T22:08:57.318Z,102372.23
2023-05-12T22:12:34.949Z,102377.65
2023-05-12T22:16:12.706Z,102359.08
2023-05-12T22:19:50.339Z,102364.85
2023-05-12T22:23:28.105Z,102366.03
2023-05-12T22:27:05.923Z,102358.82
2023-05-12T22:30:43.515Z,102361.59
2023-05-12T22:34:20.989Z,102360.27
2023-05-12T22:37:58.438Z,102359.10
2023-05-12T22:41:36.677Z,102362.80
2023-05-12T22:45:14.236Z,102368.29
2023-05-12T22:48:52.798Z,102369.93
2023-05-12T22:52:29.251Z,102366.23
2023-05-12T22:56:08.507Z,102370.12
2023-05-12T22:59:44.356Z,102369.61
2023-05-12T23:03:22.434Z,102367.96
2023-05-12T23:06:59.725Z,102364.26
2023-05-12T23:10:38.049Z,102368.23
2023-05-12T23:14:14.874Z,102369.29
2023-05-12T23:17:53.072Z,102368.23
2023-05-12T23:21:30.297Z,102366.95
2023-05-12T23:25:08.829Z,102365.36
2023-05-12T23:28:46.084Z,102362.86
2023-05-12T23:32:23.645Z,102368.81
2023-05-12T23:36:01.183Z,102374.05
2023-05-12T23:39:38.713Z,102372.52
2023-05-12T23:43:16.268Z,102373.71
2023-05-12T23:46:54.245Z,102368.40
2023-05-12T23:50:31.937Z,102361.71
2023-05-12T23:57:47.411Z,102368.96
